sensor_id;sensor_type;location;lat;lon;timestamp;P1;durP1;ratioP1;P2;durP2;ratioP2
59054;SDS011;44845;51.444;7.460;2023-11-21T00:00:43;13.38;;;6.90;;
59054;SDS011;44845;51.444;7.460;2023-11-21T00:03:11;11.77;;;6.57;;
59054;SDS011;44845;51.444;7.460;2023-11-21T00:05:39;10.93;;;6.25;;
59054;SDS011;44845;51.444;7.460;2023-11-21T00:08:06;12.25;;;6.18;;
59054;SDS011;44845;51.444;7.460;2023-11-21T00:10:32;12.20;;;5.97;;
59054;SDS011;44845;51.444;7.460;2023-11-21T00:12:58;12.73;;;6.07;;
59054;SDS011;44845;51.444;7.460;2023-11-21T00:15:23;11.98;;;5.80;;
59054;SDS011;44845;51.444;7.460;2023-11-21T00:17:49;12.20;;;5.80;;
59054;SDS011;44845;51.444;7.460;2023-11-21T00:20:14;12.98;;;6.03;;
59054;SDS011;44845;51.444;7.460;2023-11-21T00:22:40;12.90;;;6.28;;
59054;SDS011;44845;51.444;7.460;2023-11-21T00:25:06;11.43;;;5.88;;
59054;SDS011;44845;51.444;7.460;2023-11-21T00:27:33;11.60;;;5.70;;
59054;SDS011;44845;51.444;7.460;2023-11-21T00:30:00;9.55;;;5.07;;
59054;SDS011;44845;51.444;7.460;2023-11-21T00:32:25;11.75;;;5.47;;
59054;SDS011;44845;51.444;7.460;2023-11-21T00:34:50;9.63;;;4.82;;
59054;SDS011;44845;51.444;7.460;2023-11-21T00:37:16;11.07;;;5.25;;
59054;SDS011;44845;51.444;7.460;2023-11-21T00:39:41;12.68;;;5.30;;
59054;SDS011;44845;51.444;7.460;2023-11-21T00:42:07;12.73;;;5.78;;
59054;SDS011;44845;51.444;7.460;2023-11-21T00:44:33;9.40;;;4.93;;
59054;SDS011;44845;51.444;7.460;2023-11-21T00:46:59;12.02;;;5.45;;
59054;SDS011;44845;51.444;7.460;2023-11-21T00:49:24;8.90;;;5.20;;
59054;SDS011;44845;51.444;7.460;2023-11-21T00:51:50;10.13;;;5.07;;
59054;SDS011;44845;51.444;7.460;2023-11-21T00:54:15;7.80;;;4.43;;
59054;SDS011;44845;51.444;7.460;2023-11-21T00:56:42;11.02;;;4.35;;
59054;SDS011;44845;51.444;7.460;2023-11-21T00:59:08;11.60;;;4.45;;
59054;SDS011;44845;51.444;7.460;2023-11-21T01:01:33;10.15;;;4.63;;
59054;SDS011;44845;51.444;7.460;2023-11-21T01:03:58;9.90;;;4.70;;
59054;SDS011;44845;51.444;7.460;2023-11-21T01:06:23;7.30;;;4.28;;
59054;SDS011;44845;51.444;7.460;2023-11-21T01:08:49;14.00;;;4.53;;
59054;SDS011;44845;51.444;7.460;2023-11-21T01:11:14;9.13;;;4.68;;
59054;SDS011;44845;51.444;7.460;2023-11-21T01:13:40;14.57;;;4.65;;
59054;SDS011;44845;51.444;7.460;2023-11-21T01:16:06;13.73;;;4.35;;
59054;SDS011;44845;51.444;7.460;2023-11-21T01:18:32;8.20;;;4.80;;
59054;SDS011;44845;51.444;7.460;2023-11-21T01:20:58;11.07;;;4.80;;
59054;SDS011;44845;51.444;7.460;2023-11-21T01:23:25;9.93;;;4.50;;
59054;SDS011;44845;51.444;7.460;2023-11-21T01:25:51;9.52;;;4.68;;
59054;SDS011;44845;51.444;7.460;2023-11-21T01:28:17;11.38;;;4.80;;
59054;SDS011;44845;51.444;7.460;2023-11-21T01:30:43;10.50;;;4.55;;
59054;SDS011;44845;51.444;7.460;2023-11-21T01:33:09;13.98;;;5.47;;
59054;SDS011;44845;51.444;7.460;2023-11-21T01:35:34;10.98;;;4.72;;
59054;SDS011;44845;51.444;7.460;2023-11-21T01:38:00;9.57;;;5.10;;
59054;SDS011;44845;51.444;7.460;2023-11-21T01:40:26;12.75;;;5.90;;
59054;SDS011;44845;51.444;7.460;2023-11-21T01:42:53;14.40;;;5.75;;
59054;SDS011;44845;51.444;7.460;2023-11-21T01:45:18;16.00;;;6.65;;
59054;SDS011;44845;51.444;7.460;2023-11-21T01:47:44;11.70;;;6.50;;
59054;SDS011;44845;51.444;7.460;2023-11-21T01:50:12;16.55;;;6.47;;
59054;SDS011;44845;51.444;7.460;2023-11-21T01:52:40;14.38;;;6.57;;
59054;SDS011;44845;51.444;7.460;2023-11-21T01:55:08;15.73;;;7.28;;
59054;SDS011;44845;51.444;7.460;2023-11-21T01:57:35;11.02;;;7.07;;
59054;SDS011;44845;51.444;7.460;2023-11-21T02:00:02;15.43;;;7.30;;
59054;SDS011;44845;51.444;7.460;2023-11-21T02:02:41;12.15;;;7.30;;
59054;SDS011;44845;51.444;7.460;2023-11-21T02:05:11;13.25;;;6.63;;
59054;SDS011;44845;51.444;7.460;2023-11-21T02:07:43;11.65;;;6.93;;
59054;SDS011;44845;51.444;7.460;2023-11-21T02:10:12;16.42;;;7.55;;
59054;SDS011;44845;51.444;7.460;2023-11-21T02:12:40;15.07;;;7.45;;
59054;SDS011;44845;51.444;7.460;2023-11-21T02:15:12;12.05;;;7.25;;
59054;SDS011;44845;51.444;7.460;2023-11-21T02:17:45;12.48;;;7.20;;
59054;SDS011;44845;51.444;7.460;2023-11-21T02:20:16;15.30;;;8.25;;
59054;SDS011;44845;51.444;7.460;2023-11-21T02:22:43;11.43;;;7.13;;
59054;SDS011;44845;51.444;7.460;2023-11-21T02:25:10;11.15;;;7.13;;
59054;SDS011;44845;51.444;7.460;2023-11-21T02:27:36;14.98;;;7.10;;
59054;SDS011;44845;51.444;7.460;2023-11-21T02:30:02;11.55;;;7.05;;
59054;SDS011;44845;51.444;7.460;2023-11-21T02:32:29;12.18;;;6.70;;
59054;SDS011;44845;51.444;7.460;2023-11-21T02:34:56;15.73;;;7.88;;
59054;SDS011;44845;51.444;7.460;2023-11-21T02:37:25;14.45;;;7.00;;
59054;SDS011;44845;51.444;7.460;2023-11-21T02:39:51;15.55;;;7.80;;
59054;SDS011;44845;51.444;7.460;2023-11-21T02:42:17;14.60;;;7.65;;
59054;SDS011;44845;51.444;7.460;2023-11-21T02:44:43;16.55;;;7.45;;
59054;SDS011;44845;51.444;7.460;2023-11-21T02:47:09;19.63;;;7.90;;
59054;SDS011;44845;51.444;7.460;2023-11-21T02:49:34;15.32;;;7.63;;
59054;SDS011;44845;51.444;7.460;2023-11-21T02:52:00;13.57;;;7.88;;
59054;SDS011;44845;51.444;7.460;2023-11-21T02:54:26;14.77;;;7.88;;
59054;SDS011;44845;51.444;7.460;2023-11-21T02:56:52;16.88;;;7.50;;
59054;SDS011;44845;51.444;7.460;2023-11-21T02:59:17;17.88;;;8.13;;
59054;SDS011;44845;51.444;7.460;2023-11-21T03:01:44;12.70;;;8.10;;
59054;SDS011;44845;51.444;7.460;2023-11-21T03:04:10;17.15;;;8.82;;
59054;SDS011;44845;51.444;7.460;2023-11-21T03:06:35;15.93;;;7.55;;
59054;SDS011;44845;51.444;7.460;2023-11-21T03:09:01;11.80;;;7.55;;
59054;SDS011;44845;51.444;7.460;2023-11-21T03:11:26;15.70;;;8.05;;
59054;SDS011;44845;51.444;7.460;2023-11-21T03:13:52;11.95;;;7.25;;
59054;SDS011;44845;51.444;7.460;2023-11-21T03:16:18;13.13;;;8.32;;
59054;SDS011;44845;51.444;7.460;2023-11-21T03:18:44;15.82;;;7.60;;
59054;SDS011;44845;51.444;7.460;2023-11-21T03:21:09;13.63;;;7.95;;
59054;SDS011;44845;51.444;7.460;2023-11-21T03:23:35;17.67;;;7.75;;
59054;SDS011;44845;51.444;7.460;2023-11-21T03:26:01;14.90;;;7.15;;
59054;SDS011;44845;51.444;7.460;2023-11-21T03:28:27;16.75;;;7.97;;
59054;SDS011;44845;51.444;7.460;2023-11-21T03:30:52;16.85;;;7.60;;
59054;SDS011;44845;51.444;7.460;2023-11-21T03:33:18;15.38;;;7.75;;
59054;SDS011;44845;51.444;7.460;2023-11-21T03:35:44;13.90;;;7.60;;
59054;SDS011;44845;51.444;7.460;2023-11-21T03:38:09;11.13;;;7.70;;
59054;SDS011;44845;51.444;7.460;2023-11-21T03:40:35;14.20;;;7.82;;
59054;SDS011;44845;51.444;7.460;2023-11-21T03:43:01;14.60;;;7.68;;
59054;SDS011;44845;51.444;7.460;2023-11-21T03:45:26;13.85;;;7.75;;
59054;SDS011;44845;51.444;7.460;2023-11-21T03:47:51;14.73;;;7.50;;
59054;SDS011;44845;51.444;7.460;2023-11-21T03:50:17;16.75;;;8.52;;
59054;SDS011;44845;51.444;7.460;2023-11-21T03:52:42;13.95;;;7.45;;
59054;SDS011;44845;51.444;7.460;2023-11-21T03:55:08;17.20;;;8.20;;
59054;SDS011;44845;51.444;7.460;2023-11-21T03:57:33;12.00;;;7.35;;
59054;SDS011;44845;51.444;7.460;2023-11-21T03:59:58;12.77;;;7.50;;
59054;SDS011;44845;51.444;7.460;2023-11-21T04:02:24;16.65;;;7.88;;
59054;SDS011;44845;51.444;7.460;2023-11-21T04:04:51;15.20;;;7.68;;
59054;SDS011;44845;51.444;7.460;2023-11-21T04:07:16;13.20;;;7.75;;
59054;SDS011;44845;51.444;7.460;2023-11-21T04:09:42;12.00;;;7.00;;
59054;SDS011;44845;51.444;7.460;2023-11-21T04:12:08;11.07;;;7.05;;
59054;SDS011;44845;51.444;7.460;2023-11-21T04:14:36;15.80;;;8.40;;
59054;SDS011;44845;51.444;7.460;2023-11-21T04:17:01;16.98;;;7.38;;
59054;SDS011;44845;51.444;7.460;2023-11-21T04:19:29;14.25;;;7.55;;
59054;SDS011;44845;51.444;7.460;2023-11-21T04:21:54;13.13;;;7.15;;
59054;SDS011;44845;51.444;7.460;2023-11-21T04:24:20;11.10;;;6.93;;
59054;SDS011;44845;51.444;7.460;2023-11-21T04:26:45;14.73;;;6.93;;
59054;SDS011;44845;51.444;7.460;2023-11-21T04:29:10;14.27;;;6.70;;
59054;SDS011;44845;51.444;7.460;2023-11-21T04:31:36;15.32;;;6.20;;
59054;SDS011;44845;51.444;7.460;2023-11-21T04:34:01;10.82;;;5.80;;
59054;SDS011;44845;51.444;7.460;2023-11-21T04:36:29;12.65;;;6.03;;
59054;SDS011;44845;51.444;7.460;2023-11-21T04:38:55;13.70;;;6.43;;
59054;SDS011;44845;51.444;7.460;2023-11-21T04:41:21;12.75;;;6.53;;
59054;SDS011;44845;51.444;7.460;2023-11-21T04:43:46;10.55;;;5.82;;
59054;SDS011;44845;51.444;7.460;2023-11-21T04:46:11;13.98;;;6.45;;
59054;SDS011;44845;51.444;7.460;2023-11-21T04:48:37;16.15;;;6.88;;
59054;SDS011;44845;51.444;7.460;2023-11-21T04:51:02;12.77;;;6.25;;
59054;SDS011;44845;51.444;7.460;2023-11-21T04:53:29;12.30;;;6.38;;
59054;SDS011;44845;51.444;7.460;2023-11-21T04:55:54;9.95;;;6.18;;
59054;SDS011;44845;51.444;7.460;2023-11-21T04:58:19;14.98;;;7.57;;
59054;SDS011;44845;51.444;7.460;2023-11-21T05:00:45;11.15;;;6.50;;
59054;SDS011;44845;51.444;7.460;2023-11-21T05:03:11;12.15;;;7.20;;
59054;SDS011;44845;51.444;7.460;2023-11-21T05:05:37;13.75;;;6.78;;
59054;SDS011;44845;51.444;7.460;2023-11-21T05:08:02;16.52;;;7.50;;
59054;SDS011;44845;51.444;7.460;2023-11-21T05:10:28;15.20;;;7.03;;
59054;SDS011;44845;51.444;7.460;2023-11-21T05:12:54;13.95;;;7.07;;
59054;SDS011;44845;51.444;7.460;2023-11-21T05:15:20;18.98;;;7.30;;
59054;SDS011;44845;51.444;7.460;2023-11-21T05:17:46;14.13;;;6.68;;
59054;SDS011;44845;51.444;7.460;2023-11-21T05:20:14;14.57;;;6.97;;
59054;SDS011;44845;51.444;7.460;2023-11-21T05:22:42;11.02;;;7.10;;
59054;SDS011;44845;51.444;7.460;2023-11-21T05:25:08;16.67;;;7.72;;
59054;SDS011;44845;51.444;7.460;2023-11-21T05:27:34;16.88;;;7.40;;
59054;SDS011;44845;51.444;7.460;2023-11-21T05:30:03;17.33;;;7.28;;
59054;SDS011;44845;51.444;7.460;2023-11-21T05:32:37;14.68;;;7.25;;
59054;SDS011;44845;51.444;7.460;2023-11-21T05:35:03;12.75;;;6.88;;
59054;SDS011;44845;51.444;7.460;2023-11-21T05:37:34;12.68;;;7.68;;
59054;SDS011;44845;51.444;7.460;2023-11-21T05:40:00;13.82;;;7.90;;
59054;SDS011;44845;51.444;7.460;2023-11-21T05:42:31;15.65;;;7.63;;
59054;SDS011;44845;51.444;7.460;2023-11-21T05:44:59;17.35;;;8.45;;
59054;SDS011;44845;51.444;7.460;2023-11-21T05:47:34;18.25;;;8.18;;
59054;SDS011;44845;51.444;7.460;2023-11-21T05:50:01;16.35;;;8.65;;
59054;SDS011;44845;51.444;7.460;2023-11-21T05:52:26;13.40;;;8.48;;
59054;SDS011;44845;51.444;7.460;2023-11-21T05:54:52;14.60;;;8.43;;
59054;SDS011;44845;51.444;7.460;2023-11-21T05:57:17;18.30;;;9.90;;
59054;SDS011;44845;51.444;7.460;2023-11-21T05:59:43;18.05;;;9.38;;
59054;SDS011;44845;51.444;7.460;2023-11-21T06:02:08;19.45;;;10.23;;
59054;SDS011;44845;51.444;7.460;2023-11-21T06:04:34;21.35;;;9.57;;
59054;SDS011;44845;51.444;7.460;2023-11-21T06:06:59;21.48;;;9.55;;
59054;SDS011;44845;51.444;7.460;2023-11-21T06:09:25;19.10;;;9.18;;
59054;SDS011;44845;51.444;7.460;2023-11-21T06:11:51;15.38;;;9.32;;
59054;SDS011;44845;51.444;7.460;2023-11-21T06:14:16;18.88;;;10.68;;
59054;SDS011;44845;51.444;7.460;2023-11-21T06:16:42;19.25;;;10.65;;
59054;SDS011;44845;51.444;7.460;2023-11-21T06:19:10;18.67;;;9.23;;
59054;SDS011;44845;51.444;7.460;2023-11-21T06:21:35;19.27;;;11.07;;
59054;SDS011;44845;51.444;7.460;2023-11-21T06:24:01;20.92;;;10.88;;
59054;SDS011;44845;51.444;7.460;2023-11-21T06:26:26;20.70;;;10.82;;
59054;SDS011;44845;51.444;7.460;2023-11-21T06:28:52;18.40;;;9.75;;
59054;SDS011;44845;51.444;7.460;2023-11-21T06:31:18;18.85;;;10.68;;
59054;SDS011;44845;51.444;7.460;2023-11-21T06:33:44;19.20;;;10.75;;
59054;SDS011;44845;51.444;7.460;2023-11-21T06:36:09;23.85;;;12.25;;
59054;SDS011;44845;51.444;7.460;2023-11-21T06:38:36;22.10;;;10.98;;
59054;SDS011;44845;51.444;7.460;2023-11-21T06:41:02;20.75;;;10.95;;
59054;SDS011;44845;51.444;7.460;2023-11-21T06:43:29;20.83;;;11.27;;
59054;SDS011;44845;51.444;7.460;2023-11-21T06:45:56;19.38;;;10.40;;
59054;SDS011;44845;51.444;7.460;2023-11-21T06:48:21;22.35;;;11.35;;
59054;SDS011;44845;51.444;7.460;2023-11-21T06:50:47;22.83;;;9.98;;
59054;SDS011;44845;51.444;7.460;2023-11-21T06:53:12;17.00;;;10.52;;
59054;SDS011;44845;51.444;7.460;2023-11-21T06:55:38;19.73;;;10.30;;
59054;SDS011;44845;51.444;7.460;2023-11-21T06:58:03;18.20;;;10.20;;
59054;SDS011;44845;51.444;7.460;2023-11-21T07:00:30;21.95;;;11.10;;
59054;SDS011;44845;51.444;7.460;2023-11-21T07:02:55;20.90;;;11.38;;
59054;SDS011;44845;51.444;7.460;2023-11-21T07:05:21;18.40;;;10.25;;
59054;SDS011;44845;51.444;7.460;2023-11-21T07:07:47;23.02;;;11.52;;
59054;SDS011;44845;51.444;7.460;2023-11-21T07:10:14;25.40;;;11.15;;
59054;SDS011;44845;51.444;7.460;2023-11-21T07:12:40;20.77;;;11.02;;
59054;SDS011;44845;51.444;7.460;2023-11-21T07:15:05;25.33;;;12.10;;
59054;SDS011;44845;51.444;7.460;2023-11-21T07:17:34;21.02;;;11.15;;
59054;SDS011;44845;51.444;7.460;2023-11-21T07:20:02;24.65;;;12.15;;
59054;SDS011;44845;51.444;7.460;2023-11-21T07:22:28;20.27;;;10.93;;
59054;SDS011;44845;51.444;7.460;2023-11-21T07:24:53;21.92;;;11.38;;
59054;SDS011;44845;51.444;7.460;2023-11-21T07:27:21;19.67;;;10.60;;
59054;SDS011;44845;51.444;7.460;2023-11-21T07:29:46;19.77;;;10.32;;
59054;SDS011;44845;51.444;7.460;2023-11-21T07:32:13;16.35;;;9.98;;
59054;SDS011;44845;51.444;7.460;2023-11-21T07:34:39;19.13;;;10.25;;
59054;SDS011;44845;51.444;7.460;2023-11-21T07:37:06;17.70;;;10.07;;
59054;SDS011;44845;51.444;7.460;2023-11-21T07:39:31;21.25;;;10.95;;
59054;SDS011;44845;51.444;7.460;2023-11-21T07:41:57;16.85;;;9.93;;
59054;SDS011;44845;51.444;7.460;2023-11-21T07:44:22;19.55;;;10.18;;
59054;SDS011;44845;51.444;7.460;2023-11-21T07:46:48;19.90;;;11.25;;
59054;SDS011;44845;51.444;7.460;2023-11-21T07:49:14;22.48;;;11.35;;
59054;SDS011;44845;51.444;7.460;2023-11-21T07:51:41;18.13;;;10.93;;
59054;SDS011;44845;51.444;7.460;2023-11-21T07:54:07;20.95;;;11.73;;
59054;SDS011;44845;51.444;7.460;2023-11-21T07:56:32;21.13;;;12.30;;
59054;SDS011;44845;51.444;7.460;2023-11-21T07:58:57;24.80;;;12.65;;
59054;SDS011;44845;51.444;7.460;2023-11-21T08:01:23;22.17;;;12.70;;
59054;SDS011;44845;51.444;7.460;2023-11-21T08:03:49;22.98;;;12.45;;
59054;SDS011;44845;51.444;7.460;2023-11-21T08:06:17;20.98;;;12.25;;
59054;SDS011;44845;51.444;7.460;2023-11-21T08:08:42;26.70;;;12.95;;
59054;SDS011;44845;51.444;7.460;2023-11-21T08:11:07;23.20;;;12.60;;
59054;SDS011;44845;51.444;7.460;2023-11-21T08:13:35;27.73;;;13.40;;
59054;SDS011;44845;51.444;7.460;2023-11-21T08:16:00;25.33;;;13.07;;
59054;SDS011;44845;51.444;7.460;2023-11-21T08:18:29;22.58;;;12.98;;
59054;SDS011;44845;51.444;7.460;2023-11-21T08:20:55;27.17;;;13.55;;
59054;SDS011;44845;51.444;7.460;2023-11-21T08:23:21;26.17;;;14.30;;
59054;SDS011;44845;51.444;7.460;2023-11-21T08:25:50;28.42;;;13.85;;
59054;SDS011;44845;51.444;7.460;2023-11-21T08:28:15;26.27;;;13.38;;
59054;SDS011;44845;51.444;7.460;2023-11-21T08:30:41;26.05;;;13.00;;
59054;SDS011;44845;51.444;7.460;2023-11-21T08:33:06;26.42;;;12.80;;
59054;SDS011;44845;51.444;7.460;2023-11-21T08:35:33;28.35;;;13.05;;
59054;SDS011;44845;51.444;7.460;2023-11-21T08:37:59;22.42;;;12.93;;
59054;SDS011;44845;51.444;7.460;2023-11-21T08:40:24;23.05;;;12.40;;
59054;SDS011;44845;51.444;7.460;2023-11-21T08:42:50;27.38;;;12.07;;
59054;SDS011;44845;51.444;7.460;2023-11-21T08:45:17;26.20;;;12.75;;
59054;SDS011;44845;51.444;7.460;2023-11-21T08:47:43;29.83;;;13.48;;
59054;SDS011;44845;51.444;7.460;2023-11-21T08:50:09;22.88;;;13.52;;
59054;SDS011;44845;51.444;7.460;2023-11-21T08:52:35;27.88;;;14.20;;
59054;SDS011;44845;51.444;7.460;2023-11-21T08:55:02;28.15;;;14.63;;
59054;SDS011;44845;51.444;7.460;2023-11-21T08:57:32;26.00;;;14.02;;
59054;SDS011;44845;51.444;7.460;2023-11-21T09:00:01;27.00;;;14.00;;
59054;SDS011;44845;51.444;7.460;2023-11-21T09:02:30;29.75;;;14.05;;
59054;SDS011;44845;51.444;7.460;2023-11-21T09:04:55;27.67;;;13.73;;
59054;SDS011;44845;51.444;7.460;2023-11-21T09:07:20;31.45;;;14.45;;
59054;SDS011;44845;51.444;7.460;2023-11-21T09:09:48;29.90;;;13.52;;
59054;SDS011;44845;51.444;7.460;2023-11-21T09:12:14;29.17;;;13.60;;
59054;SDS011;44845;51.444;7.460;2023-11-21T09:14:40;28.98;;;14.45;;
59054;SDS011;44845;51.444;7.460;2023-11-21T09:17:06;29.05;;;14.38;;
59054;SDS011;44845;51.444;7.460;2023-11-21T09:19:38;27.92;;;14.98;;
59054;SDS011;44845;51.444;7.460;2023-11-21T09:22:04;33.13;;;15.75;;
59054;SDS011;44845;51.444;7.460;2023-11-21T09:24:30;29.10;;;13.35;;
59054;SDS011;44845;51.444;7.460;2023-11-21T09:26:56;33.38;;;14.80;;
59054;SDS011;44845;51.444;7.460;2023-11-21T09:29:22;31.70;;;14.20;;
59054;SDS011;44845;51.444;7.460;2023-11-21T09:31:47;32.35;;;14.23;;
59054;SDS011;44845;51.444;7.460;2023-11-21T09:34:13;31.75;;;13.90;;
59054;SDS011;44845;51.444;7.460;2023-11-21T09:36:38;33.42;;;14.73;;
59054;SDS011;44845;51.444;7.460;2023-11-21T09:39:04;29.40;;;14.30;;
59054;SDS011;44845;51.444;7.460;2023-11-21T09:41:34;33.20;;;14.35;;
59054;SDS011;44845;51.444;7.460;2023-11-21T09:44:09;29.15;;;14.57;;
59054;SDS011;44845;51.444;7.460;2023-11-21T09:46:40;33.40;;;15.65;;
59054;SDS011;44845;51.444;7.460;2023-11-21T09:49:08;34.90;;;16.02;;
59054;SDS011;44845;51.444;7.460;2023-11-21T09:51:38;47.03;;;18.48;;
59054;SDS011;44845;51.444;7.460;2023-11-21T09:54:07;33.95;;;16.58;;
59054;SDS011;44845;51.444;7.460;2023-11-21T09:56:35;34.75;;;17.23;;
59054;SDS011;44845;51.444;7.460;2023-11-21T09:59:01;40.95;;;18.63;;
59054;SDS011;44845;51.444;7.460;2023-11-21T10:01:32;35.85;;;17.38;;
59054;SDS011;44845;51.444;7.460;2023-11-21T10:03:58;41.38;;;17.38;;
59054;SDS011;44845;51.444;7.460;2023-11-21T10:06:24;46.45;;;18.95;;
59054;SDS011;44845;51.444;7.460;2023-11-21T10:08:51;38.90;;;17.92;;
59054;SDS011;44845;51.444;7.460;2023-11-21T10:11:18;42.28;;;17.27;;
59054;SDS011;44845;51.444;7.460;2023-11-21T10:13:46;38.33;;;17.75;;
59054;SDS011;44845;51.444;7.460;2023-11-21T10:16:15;42.60;;;17.90;;
59054;SDS011;44845;51.444;7.460;2023-11-21T10:18:46;39.47;;;17.77;;
59054;SDS011;44845;51.444;7.460;2023-11-21T10:21:13;40.40;;;17.48;;
59054;SDS011;44845;51.444;7.460;2023-11-21T10:23:39;41.50;;;17.83;;
59054;SDS011;44845;51.444;7.460;2023-11-21T10:26:04;35.58;;;17.08;;
59054;SDS011;44845;51.444;7.460;2023-11-21T10:28:35;30.98;;;16.75;;
59054;SDS011;44845;51.444;7.460;2023-11-21T10:31:02;35.33;;;16.13;;
59054;SDS011;44845;51.444;7.460;2023-11-21T10:33:28;43.60;;;17.38;;
59054;SDS011;44845;51.444;7.460;2023-11-21T10:35:57;41.60;;;18.55;;
59054;SDS011;44845;51.444;7.460;2023-11-21T10:38:23;34.03;;;16.75;;
59054;SDS011;44845;51.444;7.460;2023-11-21T10:40:49;35.85;;;17.65;;
59054;SDS011;44845;51.444;7.460;2023-11-21T10:43:15;38.08;;;16.35;;
59054;SDS011;44845;51.444;7.460;2023-11-21T10:45:42;35.33;;;17.05;;
59054;SDS011;44845;51.444;7.460;2023-11-21T10:48:10;41.75;;;17.83;;
59054;SDS011;44845;51.444;7.460;2023-11-21T10:50:42;33.92;;;16.35;;
59054;SDS011;44845;51.444;7.460;2023-11-21T10:53:09;39.25;;;17.27;;
59054;SDS011;44845;51.444;7.460;2023-11-21T10:55:36;38.85;;;18.02;;
59054;SDS011;44845;51.444;7.460;2023-11-21T10:58:02;38.85;;;17.45;;
59054;SDS011;44845;51.444;7.460;2023-11-21T11:00:30;42.72;;;15.88;;
59054;SDS011;44845;51.444;7.460;2023-11-21T11:02:57;34.78;;;16.48;;
59054;SDS011;44845;51.444;7.460;2023-11-21T11:05:24;35.47;;;16.55;;
59054;SDS011;44845;51.444;7.460;2023-11-21T11:08:08;37.22;;;16.38;;
59054;SDS011;44845;51.444;7.460;2023-11-21T11:10:37;34.08;;;15.70;;
59054;SDS011;44845;51.444;7.460;2023-11-21T11:13:02;32.95;;;16.13;;
59054;SDS011;44845;51.444;7.460;2023-11-21T11:15:29;39.03;;;16.33;;
59054;SDS011;44845;51.444;7.460;2023-11-21T11:17:54;30.42;;;15.60;;
59054;SDS011;44845;51.444;7.460;2023-11-21T11:20:25;39.88;;;18.33;;
59054;SDS011;44845;51.444;7.460;2023-11-21T11:28:27;36.05;;;17.33;;
59054;SDS011;44845;51.444;7.460;2023-11-21T11:31:08;39.17;;;17.55;;
59054;SDS011;44845;51.444;7.460;2023-11-21T11:33:59;46.60;;;18.63;;
59054;SDS011;44845;51.444;7.460;2023-11-21T11:36:37;38.35;;;17.75;;
59054;SDS011;44845;51.444;7.460;2023-11-21T11:39:29;43.90;;;19.15;;
59054;SDS011;44845;51.444;7.460;2023-11-21T11:42:01;40.38;;;17.67;;
59054;SDS011;44845;51.444;7.460;2023-11-21T11:52:38;44.80;;;17.65;;
59054;SDS011;44845;51.444;7.460;2023-11-21T11:55:06;42.03;;;18.10;;
59054;SDS011;44845;51.444;7.460;2023-11-21T11:57:35;40.33;;;17.63;;
59054;SDS011;44845;51.444;7.460;2023-11-21T12:02:37;33.72;;;16.60;;
59054;SDS011;44845;51.444;7.460;2023-11-21T12:05:14;37.15;;;17.85;;
59054;SDS011;44845;51.444;7.460;2023-11-21T12:07:44;33.78;;;17.48;;
59054;SDS011;44845;51.444;7.460;2023-11-21T12:10:14;33.63;;;16.17;;
59054;SDS011;44845;51.444;7.460;2023-11-21T12:12:43;32.72;;;17.55;;
59054;SDS011;44845;51.444;7.460;2023-11-21T12:15:10;33.83;;;17.35;;
59054;SDS011;44845;51.444;7.460;2023-11-21T12:17:36;39.63;;;18.35;;
59054;SDS011;44845;51.444;7.460;2023-11-21T12:20:03;32.80;;;17.55;;
59054;SDS011;44845;51.444;7.460;2023-11-21T12:22:30;38.42;;;18.25;;
59054;SDS011;44845;51.444;7.460;2023-11-21T12:24:56;32.83;;;17.92;;
59054;SDS011;44845;51.444;7.460;2023-11-21T12:27:22;33.83;;;17.33;;
59054;SDS011;44845;51.444;7.460;2023-11-21T12:29:47;39.03;;;18.88;;
59054;SDS011;44845;51.444;7.460;2023-11-21T12:32:12;34.55;;;19.13;;
59054;SDS011;44845;51.444;7.460;2023-11-21T12:34:40;40.15;;;20.00;;
59054;SDS011;44845;51.444;7.460;2023-11-21T12:37:05;42.10;;;20.65;;
59054;SDS011;44845;51.444;7.460;2023-11-21T12:39:31;39.47;;;21.52;;
59054;SDS011;44845;51.444;7.460;2023-11-21T12:41:56;39.78;;;21.48;;
59054;SDS011;44845;51.444;7.460;2023-11-21T12:44:22;40.08;;;21.77;;
59054;SDS011;44845;51.444;7.460;2023-11-21T12:46:49;34.45;;;19.85;;
59054;SDS011;44845;51.444;7.460;2023-11-21T12:49:15;34.83;;;20.23;;
59054;SDS011;44845;51.444;7.460;2023-11-21T12:51:44;34.50;;;20.45;;
59054;SDS011;44845;51.444;7.460;2023-11-21T12:54:12;33.20;;;20.00;;
59054;SDS011;44845;51.444;7.460;2023-11-21T12:56:38;32.70;;;19.77;;
59054;SDS011;44845;51.444;7.460;2023-11-21T12:59:04;29.65;;;19.05;;
59054;SDS011;44845;51.444;7.460;2023-11-21T13:01:29;33.13;;;19.23;;
59054;SDS011;44845;51.444;7.460;2023-11-21T13:03:57;29.73;;;19.40;;
59054;SDS011;44845;51.444;7.460;2023-11-21T13:06:23;26.17;;;17.33;;
59054;SDS011;44845;51.444;7.460;2023-11-21T13:08:51;28.45;;;17.58;;
59054;SDS011;44845;51.444;7.460;2023-11-21T13:11:17;26.98;;;17.58;;
59054;SDS011;44845;51.444;7.460;2023-11-21T13:13:42;29.52;;;18.55;;
59054;SDS011;44845;51.444;7.460;2023-11-21T13:16:08;31.45;;;18.95;;
59054;SDS011;44845;51.444;7.460;2023-11-21T13:18:34;31.35;;;19.48;;
59054;SDS011;44845;51.444;7.460;2023-11-21T13:21:04;28.20;;;19.02;;
59054;SDS011;44845;51.444;7.460;2023-11-21T13:23:36;27.65;;;19.17;;
59054;SDS011;44845;51.444;7.460;2023-11-21T13:26:02;28.00;;;18.65;;
59054;SDS011;44845;51.444;7.460;2023-11-21T13:28:29;26.55;;;18.08;;
59054;SDS011;44845;51.444;7.460;2023-11-21T13:30:57;26.02;;;16.38;;
59054;SDS011;44845;51.444;7.460;2023-11-21T13:33:27;22.15;;;14.55;;
59054;SDS011;44845;51.444;7.460;2023-11-21T13:35:53;21.00;;;13.68;;
59054;SDS011;44845;51.444;7.460;2023-11-21T13:38:21;22.25;;;12.20;;
59054;SDS011;44845;51.444;7.460;2023-11-21T13:40:52;21.60;;;12.93;;
59054;SDS011;44845;51.444;7.460;2023-11-21T13:43:23;19.65;;;12.20;;
59054;SDS011;44845;51.444;7.460;2023-11-21T13:45:51;23.00;;;11.30;;
59054;SDS011;44845;51.444;7.460;2023-11-21T13:48:25;18.75;;;10.45;;
59054;SDS011;44845;51.444;7.460;2023-11-21T13:50:57;15.25;;;9.57;;
59054;SDS011;44845;51.444;7.460;2023-11-21T13:53:26;16.45;;;9.98;;
59054;SDS011;44845;51.444;7.460;2023-11-21T13:55:51;15.25;;;8.63;;
59054;SDS011;44845;51.444;7.460;2023-11-21T13:58:22;14.77;;;9.32;;
59054;SDS011;44845;51.444;7.460;2023-11-21T14:00:57;18.00;;;9.75;;
59054;SDS011;44845;51.444;7.460;2023-11-21T14:03:23;17.52;;;9.68;;
59054;SDS011;44845;51.444;7.460;2023-11-21T14:05:57;13.32;;;9.00;;
59054;SDS011;44845;51.444;7.460;2023-11-21T14:08:23;14.50;;;9.02;;
59054;SDS011;44845;51.444;7.460;2023-11-21T14:10:53;11.93;;;7.70;;
59054;SDS011;44845;51.444;7.460;2023-11-21T14:13:22;16.23;;;8.85;;
59054;SDS011;44845;51.444;7.460;2023-11-21T14:15:51;12.75;;;8.10;;
59054;SDS011;44845;51.444;7.460;2023-11-21T14:18:24;13.30;;;8.05;;
59054;SDS011;44845;51.444;7.460;2023-11-21T14:21:03;12.45;;;8.15;;
59054;SDS011;44845;51.444;7.460;2023-11-21T14:23:30;13.73;;;7.57;;
59054;SDS011;44845;51.444;7.460;2023-11-21T14:25:56;13.07;;;7.13;;
59054;SDS011;44845;51.444;7.460;2023-11-21T14:28:22;12.75;;;7.57;;
59054;SDS011;44845;51.444;7.460;2023-11-21T14:30:48;11.70;;;7.10;;
59054;SDS011;44845;51.444;7.460;2023-11-21T14:33:13;12.18;;;7.68;;
59054;SDS011;44845;51.444;7.460;2023-11-21T14:35:41;12.90;;;6.40;;
59054;SDS011;44845;51.444;7.460;2023-11-21T14:38:07;10.75;;;7.40;;
59054;SDS011;44845;51.444;7.460;2023-11-21T14:40:32;13.80;;;7.28;;
59054;SDS011;44845;51.444;7.460;2023-11-21T14:43:01;11.60;;;7.22;;